North Bay, Canada
Current Conditions -  °F | °C
As of 3:00 AM on Friday 31 Oct 2014 (Local Time) from CYYB Reporting Station
Overcast Overcast  
Wind Chill: 23°   Ceiling: 5000
Heat Index: 30°   Visibility: 9mi
Dew Point: 27°   Wind: 8mph
Humidity: 86%   Direction: 70°ENE
Pressure: 29.97"   Gusts: NA
Location:  46.31°N, 79.46°W
Report Text: CYYB 310700Z AUTO 07007KT 9SM BKN050 OVC060 M01/M03 A2997 RMK SLP166
Loading
Personal Weather Stations






























Interactive Weather Map
Tropical Storm Tracking
New forecast layout! Learn more

10-Day Weather Forecast

Advertisements
Track Severe Weather on mobile